Time;durP1;ratioP1;P1;durP2;ratioP2;P2;SDS_P1;SDS_P2;PMS_P1;PMS_P2;Temp;Humidity;BMP_temperature;BMP_pressure;BME280_temperature;BME280_humidity;BME280_pressure;Samples;Min_cycle;Max_cycle;Signal;HPM_P1;HPM_P2
2023/05/23 00:00:10;;;;;;;9.20;5.53;;;;;;;11.16;100.00;94507.31;5107220;28;20571;-82
2023/05/23 00:02:37;;;;;;;7.60;4.97;;;;;;;11.01;100.00;94498.69;5093907;28;20225;-82
2023/05/23 00:05:06;;;;;;;8.05;5.53;;;;;;;10.87;100.00;94505.50;5109589;28;20201;-83
2023/05/23 00:07:34;;;;;;;7.85;5.40;;;;;;;10.91;100.00;94493.66;5102448;28;20673;-84
2023/05/23 00:10:01;;;;;;;7.43;5.10;;;;;;;10.82;100.00;94492.16;5105295;28;20936;-83
2023/05/23 00:12:28;;;;;;;8.20;4.95;;;;;;;10.66;100.00;94492.75;5109928;28;20198;-82
2023/05/23 00:14:55;;;;;;;9.70;5.15;;;;;;;10.61;100.00;94492.97;5109678;28;20334;-82
2023/05/23 00:17:24;;;;;;;7.47;4.95;;;;;;;10.56;100.00;94490.44;5109273;28;20667;-82
2023/05/23 00:19:51;;;;;;;8.57;5.45;;;;;;;10.80;100.00;94486.25;5109493;28;20194;-82
2023/05/23 00:22:18;;;;;;;6.85;4.60;;;;;;;10.73;100.00;94483.31;5109411;28;20305;-82
2023/05/23 00:24:46;;;;;;;7.30;4.57;;;;;;;10.79;100.00;94492.81;5109932;28;20225;-83
2023/05/23 00:27:13;;;;;;;8.02;5.25;;;;;;;10.80;100.00;94491.69;5109388;28;20204;-83
2023/05/23 00:29:40;;;;;;;10.30;5.10;;;;;;;10.79;100.00;94482.78;5109439;28;20619;-82
2023/05/23 00:32:07;;;;;;;10.82;4.90;;;;;;;10.89;100.00;94478.88;5110509;28;20617;-82
2023/05/23 00:34:35;;;;;;;10.52;5.03;;;;;;;10.78;100.00;94483.91;5106606;28;20233;-82
2023/05/23 00:37:02;;;;;;;8.38;4.80;;;;;;;10.80;100.00;94483.53;5091509;28;20536;-83
2023/05/23 00:39:28;;;;;;;7.75;4.50;;;;;;;10.77;100.00;94484.25;5109242;28;20241;-82
2023/05/23 00:41:57;;;;;;;6.70;4.53;;;;;;;10.86;100.00;94490.38;5099375;28;20198;-82
2023/05/23 00:44:24;;;;;;;9.32;4.93;;;;;;;10.92;100.00;94486.34;5107163;28;20250;-82
2023/05/23 00:46:54;;;;;;;8.38;5.15;;;;;;;10.97;100.00;94483.41;5109304;28;20205;-83
2023/05/23 00:49:22;;;;;;;4.90;3.55;;;;;;;10.94;100.00;94478.63;5109097;28;20660;-81
2023/05/23 00:51:49;;;;;;;6.78;4.10;;;;;;;10.92;100.00;94472.78;5109171;28;20221;-83
2023/05/23 00:54:18;;;;;;;7.88;3.90;;;;;;;10.92;100.00;94475.50;5109071;28;20676;-82
2023/05/23 00:56:45;;;;;;;16.08;3.38;;;;;;;10.85;100.00;94486.06;5109488;28;20194;-83
2023/05/23 00:59:13;;;;;;;5.78;3.55;;;;;;;10.80;100.00;94483.53;5104872;28;20344;-83
2023/05/23 01:01:43;;;;;;;7.05;3.72;;;;;;;10.82;100.00;94486.72;5108857;28;20212;-83
2023/05/23 01:04:10;;;;;;;5.25;3.15;;;;;;;10.84;100.00;94479.06;5109290;28;20266;-83
2023/05/23 01:06:37;;;;;;;6.82;3.70;;;;;;;10.78;100.00;94481.19;5108815;28;20280;-83
2023/05/23 01:09:04;;;;;;;6.28;3.22;;;;;;;10.67;100.00;94488.91;5109445;28;20259;-83
2023/05/23 01:11:35;;;;;;;10.43;3.72;;;;;;;10.63;100.00;94493.44;5109326;28;20221;-83
2023/05/23 01:14:10;;;;;;;6.18;3.53;;;;;;;10.52;100.00;94494.94;5108950;28;20690;-83
2023/05/23 01:16:47;;;;;;;4.20;2.95;;;;;;;10.57;100.00;94502.06;5103181;28;20682;-82
2023/05/23 01:19:39;;;;;;;11.45;3.33;;;;;;;10.57;100.00;94492.03;5108831;28;20732;-81
2023/05/23 01:22:15;;;;;;;9.48;2.75;;;;;;;10.55;100.00;94482.63;5108666;28;20198;-82
2023/05/23 01:24:50;;;;;;;6.47;3.58;;;;;;;10.53;100.00;94484.88;5090014;28;20190;-83
2023/05/23 01:27:26;;;;;;;4.00;3.08;;;;;;;10.45;100.00;94489.25;5108783;28;20197;-83
2023/05/23 01:29:58;;;;;;;7.85;2.97;;;;;;;10.46;100.00;94481.94;5098269;28;20274;-81
2023/05/23 01:32:27;;;;;;;4.72;2.47;;;;;;;10.47;100.00;94492.44;5108686;28;20656;-81
2023/05/23 01:34:55;;;;;;;4.63;2.40;;;;;;;10.47;100.00;94491.63;5103588;28;20229;-83
2023/05/23 01:37:21;;;;;;;6.85;3.08;;;;;;;10.44;100.00;94493.09;5100176;28;20201;-82
2023/05/23 01:39:48;;;;;;;5.15;2.85;;;;;;;10.37;100.00;94487.41;5108791;28;20222;-82
2023/05/23 01:42:16;;;;;;;4.75;3.28;;;;;;;10.45;100.00;94483.03;5108571;28;20278;-83
2023/05/23 01:44:43;;;;;;;5.40;3.28;;;;;;;10.41;100.00;94485.63;5104381;28;20202;-83
2023/05/23 01:47:12;;;;;;;6.28;2.95;;;;;;;10.31;100.00;94489.50;5100747;28;20262;-83
2023/05/23 01:49:40;;;;;;;5.72;3.17;;;;;;;10.31;100.00;94477.88;5108650;28;20206;-83
2023/05/23 01:52:09;;;;;;;5.40;3.85;;;;;;;10.38;100.00;94480.09;5108116;28;20226;-82
2023/05/23 01:54:37;;;;;;;5.45;2.80;;;;;;;10.37;100.00;94473.09;5095437;28;20586;-82
2023/05/23 01:57:05;;;;;;;5.18;3.88;;;;;;;10.41;100.00;94477.50;5104522;28;20266;-81
2023/05/23 01:59:32;;;;;;;3.03;2.72;;;;;;;10.42;100.00;94476.38;5110275;28;20233;-82
2023/05/23 02:02:00;;;;;;;4.43;2.60;;;;;;;10.33;100.00;94478.34;5112424;28;20221;-81
2023/05/23 02:04:30;;;;;;;4.47;3.10;;;;;;;10.22;100.00;94477.97;5112663;28;20268;-81
2023/05/23 02:06:57;;;;;;;5.85;3.05;;;;;;;10.23;100.00;94476.03;5110956;28;20198;-82
2023/05/23 02:09:24;;;;;;;6.95;3.13;;;;;;;10.17;100.00;94471.91;5102533;28;20212;-82
2023/05/23 02:11:51;;;;;;;8.05;3.53;;;;;;;10.07;100.00;94475.78;5111684;28;20233;-83
2023/05/23 02:14:18;;;;;;;4.82;3.60;;;;;;;10.03;100.00;94476.75;5114342;28;20201;-82
2023/05/23 02:16:45;;;;;;;5.80;3.25;;;;;;;10.01;100.00;94479.78;5112960;28;20249;-83
2023/05/23 02:19:11;;;;;;;4.75;2.97;;;;;;;9.93;100.00;94480.66;5112614;28;20286;-82
2023/05/23 02:21:40;;;;;;;7.63;3.40;;;;;;;9.83;100.00;94479.13;5111578;28;20286;-83
2023/05/23 02:24:06;;;;;;;6.32;3.80;;;;;;;9.91;100.00;94486.38;5102304;28;20590;-83
2023/05/23 02:26:33;;;;;;;10.55;4.55;;;;;;;10.05;100.00;94480.72;5107756;28;20751;-83
2023/05/23 02:29:00;;;;;;;7.00;3.85;;;;;;;10.11;100.00;94478.63;5111679;28;20251;-83
2023/05/23 02:31:27;;;;;;;5.85;3.78;;;;;;;10.14;100.00;94478.75;5111760;28;20287;-82
2023/05/23 02:33:54;;;;;;;6.60;4.22;;;;;;;10.15;100.00;94479.56;5111657;28;20233;-83
2023/05/23 02:36:21;;;;;;;10.80;4.88;;;;;;;10.14;100.00;94480.66;5098007;28;20267;-83
2023/05/23 02:38:49;;;;;;;5.43;3.83;;;;;;;10.02;100.00;94467.84;5111558;28;20712;-82
2023/05/23 02:41:16;;;;;;;5.15;3.60;;;;;;;9.97;100.00;94471.56;5109425;28;20207;-83
2023/05/23 02:43:45;;;;;;;4.70;3.20;;;;;;;9.97;100.00;94468.84;5105154;28;20222;-83
2023/05/23 02:46:13;;;;;;;15.93;3.80;;;;;;;10.08;100.00;94463.06;5105939;28;20202;-82
2023/05/23 02:48:40;;;;;;;7.78;3.65;;;;;;;9.99;100.00;94469.28;5106939;28;20219;-83
2023/05/23 02:51:06;;;;;;;5.28;3.58;;;;;;;9.86;100.00;94461.41;5103725;28;20622;-82
2023/05/23 02:53:33;;;;;;;7.03;4.43;;;;;;;9.82;100.00;94461.28;5103759;28;20202;-82
2023/05/23 02:56:01;;;;;;;5.85;3.88;;;;;;;9.71;100.00;94451.94;5109002;28;20202;-83
2023/05/23 02:58:28;;;;;;;7.00;4.68;;;;;;;9.75;100.00;94461.00;5103500;28;20271;-82
2023/05/23 03:00:55;;;;;;;7.80;4.65;;;;;;;9.70;100.00;94463.91;5105358;28;20273;-83
2023/05/23 03:03:22;;;;;;;8.80;5.05;;;;;;;9.71;100.00;94460.06;5107841;28;20217;-82
2023/05/23 03:05:49;;;;;;;8.85;5.22;;;;;;;9.85;100.00;94459.81;5103738;28;20197;-82
2023/05/23 03:08:15;;;;;;;6.97;4.55;;;;;;;9.81;100.00;94465.13;5102321;28;20197;-82
2023/05/23 03:10:42;;;;;;;8.43;4.43;;;;;;;9.75;100.00;94479.13;5102830;28;20199;-82
2023/05/23 03:13:10;;;;;;;8.18;4.55;;;;;;;10.01;100.00;94468.19;5104578;28;20670;-83
2023/05/23 03:15:37;;;;;;;6.88;4.22;;;;;;;10.09;100.00;94470.06;5104016;28;20194;-83
2023/05/23 03:18:04;;;;;;;7.13;4.32;;;;;;;10.17;100.00;94466.50;5103576;28;20247;-82
2023/05/23 03:20:31;;;;;;;13.07;4.88;;;;;;;10.15;100.00;94471.44;5106375;28;20224;-82
2023/05/23 03:22:58;;;;;;;20.08;5.28;;;;;;;10.19;100.00;94465.06;5105033;28;20243;-81
2023/05/23 03:25:24;;;;;;;13.32;5.65;;;;;;;10.20;100.00;94472.06;5103919;28;20259;-81
2023/05/23 03:27:51;;;;;;;13.55;4.95;;;;;;;10.28;100.00;94478.53;5104766;28;20198;-82
2023/05/23 03:30:20;;;;;;;37.47;5.95;;;;;;;10.02;100.00;94478.69;5105656;28;20267;-82
2023/05/23 03:32:48;;;;;;;19.35;5.90;;;;;;;10.11;100.00;94481.34;5105593;28;20247;-82
2023/05/23 03:35:15;;;;;;;87.50;6.65;;;;;;;10.25;100.00;94485.41;5111267;28;20206;-82
2023/05/23 03:37:42;;;;;;;12.20;6.30;;;;;;;10.70;100.00;94479.34;5110865;28;20815;-81
2023/05/23 03:40:09;;;;;;;68.78;8.15;;;;;;;11.01;100.00;94484.34;5110598;28;20663;-81
2023/05/23 03:42:37;;;;;;;40.80;5.97;;;;;;;11.16;100.00;94486.41;5110768;28;20206;-81
2023/05/23 03:45:04;;;;;;;48.83;6.45;;;;;;;11.58;100.00;94489.00;5110547;28;20287;-81
2023/05/23 03:47:32;;;;;;;29.63;6.88;;;;;;;11.89;100.00;94489.25;5110496;28;20295;-81
2023/05/23 03:49:59;;;;;;;15.98;6.05;;;;;;;11.74;100.00;94495.34;5110345;28;20262;-81
2023/05/23 03:52:26;;;;;;;17.67;7.30;;;;;;;11.83;100.00;94492.56;5110141;28;20648;-82
2023/05/23 03:54:52;;;;;;;19.05;6.90;;;;;;;12.15;100.00;94488.94;5110344;28;20640;-82
2023/05/23 03:57:19;;;;;;;14.73;6.03;;;;;;;12.29;100.00;94492.09;5110433;28;20573;-83
2023/05/23 03:59:46;;;;;;;21.52;6.60;;;;;;;12.00;100.00;94490.41;5110402;28;20226;-85
2023/05/23 04:02:13;;;;;;;10.27;6.30;;;;;;;12.10;100.00;94489.97;5107742;28;20201;-81
2023/05/23 04:04:42;;;;;;;8.93;5.90;;;;;;;12.23;100.00;94490.75;5110157;28;20205;-82
2023/05/23 04:07:10;;;;;;;17.10;6.13;;;;;;;12.36;100.00;94495.03;5107091;28;20571;-81
2023/05/23 04:09:36;;;;;;;12.85;6.15;;;;;;;12.44;100.00;94496.03;5105679;28;20222;-81
2023/05/23 04:12:03;;;;;;;15.40;6.93;;;;;;;12.51;100.00;94490.81;5111339;28;20210;-83
2023/05/23 04:14:32;;;;;;;12.85;6.28;;;;;;;12.57;99.32;94484.03;5110110;28;20201;-87
2023/05/23 04:16:59;;;;;;;12.63;7.35;;;;;;;12.69;99.62;94486.72;5113725;28;20574;-83
2023/05/23 04:19:26;;;;;;;20.60;8.20;;;;;;;12.70;100.00;94482.84;5112068;28;20229;-80
2023/05/23 04:21:54;;;;;;;14.70;7.47;;;;;;;12.76;100.00;94489.63;5110671;28;20197;-82
2023/05/23 04:24:21;;;;;;;19.50;7.03;;;;;;;12.84;100.00;94492.56;5109927;28;20205;-84
2023/05/23 04:26:48;;;;;;;24.40;8.32;;;;;;;12.80;99.67;94482.38;5099276;28;20310;-84
2023/05/23 04:29:15;;;;;;;19.50;7.15;;;;;;;12.67;100.00;94485.47;5109593;28;20247;-81
2023/05/23 04:31:44;;;;;;;16.40;8.10;;;;;;;12.96;100.00;94487.88;5110951;28;20209;-83
2023/05/23 04:34:11;;;;;;;22.63;8.85;;;;;;;12.48;100.00;94491.50;5109355;28;20279;-81
2023/05/23 04:36:38;;;;;;;32.63;9.05;;;;;;;12.59;100.00;94491.81;5109611;28;20202;-80
2023/05/23 04:39:06;;;;;;;29.38;9.82;;;;;;;12.46;100.00;94504.63;5109385;28;20712;-80
2023/05/23 04:41:33;;;;;;;26.58;9.98;;;;;;;12.66;100.00;94492.81;5110632;28;20270;-84
2023/05/23 04:43:59;;;;;;;25.10;11.60;;;;;;;12.98;100.00;94487.53;5110235;28;20648;-83
2023/05/23 04:46:27;;;;;;;34.20;11.07;;;;;;;12.82;100.00;94485.53;5096486;28;20201;-84
2023/05/23 04:48:54;;;;;;;41.55;11.25;;;;;;;12.74;100.00;94489.16;5110346;28;20255;-84
2023/05/23 04:51:21;;;;;;;28.70;11.18;;;;;;;12.97;100.00;94492.16;5111498;28;20278;-84
2023/05/23 04:53:50;;;;;;;24.40;10.73;;;;;;;13.10;100.00;94503.78;5100823;28;20202;-84
2023/05/23 04:56:19;;;;;;;31.33;11.10;;;;;;;12.89;100.00;94506.69;5098191;28;20558;-83
2023/05/23 04:58:46;;;;;;;32.88;10.73;;;;;;;12.32;100.00;94504.19;5108552;28;20667;-86
2023/05/23 05:01:14;;;;;;;41.78;12.13;;;;;;;12.56;100.00;94506.88;5107024;28;20209;-85
2023/05/23 05:03:41;;;;;;;24.60;12.23;;;;;;;12.83;100.00;94497.19;5117666;28;20202;-85
2023/05/23 05:06:08;;;;;;;22.33;12.95;;;;;;;12.89;100.00;94503.16;5116781;28;20201;-84
2023/05/23 05:08:36;;;;;;;26.58;11.90;;;;;;;13.07;100.00;94507.97;5115441;28;20635;-83
2023/05/23 05:11:02;;;;;;;39.75;12.80;;;;;;;13.13;100.00;94511.22;5113276;28;20208;-82
2023/05/23 05:13:30;;;;;;;21.17;12.40;;;;;;;13.30;100.00;94510.16;5108908;28;20209;-83
2023/05/23 05:15:57;;;;;;;23.25;12.15;;;;;;;13.26;100.00;94515.50;5109788;28;20206;-80
2023/05/23 05:18:26;;;;;;;24.67;12.95;;;;;;;13.51;100.00;94522.44;5109292;28;20212;-80
2023/05/23 05:20:53;;;;;;;23.38;12.93;;;;;;;13.48;100.00;94512.25;5108616;28;20269;-79
2023/05/23 05:23:20;;;;;;;25.58;13.02;;;;;;;13.44;100.00;94514.06;5108614;28;20239;-81
2023/05/23 05:25:47;;;;;;;25.17;12.73;;;;;;;13.55;100.00;94510.84;5109490;28;20244;-82
2023/05/23 05:28:14;;;;;;;24.92;12.75;;;;;;;13.75;99.88;94516.06;5110240;28;20247;-81
2023/05/23 05:30:45;;;;;;;23.02;12.40;;;;;;;13.69;100.00;94509.28;5112897;28;20221;-81
2023/05/23 05:33:11;;;;;;;28.23;12.02;;;;;;;13.47;99.41;94515.31;5115407;28;20487;-84
2023/05/23 05:35:39;;;;;;;25.55;12.45;;;;;;;13.50;100.00;94509.97;5115104;28;20197;-81
2023/05/23 05:38:07;;;;;;;22.40;12.40;;;;;;;13.60;100.00;94513.31;5112247;28;20212;-79
2023/05/23 05:40:34;;;;;;;27.73;13.98;;;;;;;13.77;100.00;94529.31;5111828;28;20229;-80
2023/05/23 05:43:01;;;;;;;25.92;13.18;;;;;;;13.62;99.54;94522.72;5112526;28;21094;-81
2023/05/23 05:45:27;;;;;;;28.70;11.88;;;;;;;13.77;99.18;94518.44;5113024;28;20258;-79
2023/05/23 05:47:55;;;;;;;31.45;14.32;;;;;;;14.00;100.00;94527.56;5112477;28;20221;-80
2023/05/23 05:50:22;;;;;;;25.67;13.98;;;;;;;14.70;98.65;94516.78;5112345;28;20302;-80
2023/05/23 05:52:49;;;;;;;34.97;14.40;;;;;;;14.92;93.94;94512.56;5105082;28;20575;-81
2023/05/23 05:55:16;;;;;;;34.13;13.15;;;;;;;15.32;92.53;94517.69;5098576;28;20206;-78
2023/05/23 05:57:43;;;;;;;26.40;14.40;;;;;;;14.98;91.57;94521.28;5111531;28;20202;-82
2023/05/23 06:00:13;;;;;;;29.73;13.90;;;;;;;14.86;91.74;94517.53;5112081;28;20229;-81
2023/05/23 06:02:41;;;;;;;28.08;15.55;;;;;;;15.31;91.70;94518.06;5112599;28;20194;-81
2023/05/23 06:05:11;;;;;;;43.38;27.10;;;;;;;15.72;90.19;94506.38;5111914;28;20198;-79
2023/05/23 06:07:38;;;;;;;31.90;14.68;;;;;;;15.80;88.28;94505.38;5112612;28;20204;-79
2023/05/23 06:10:07;;;;;;;25.48;13.93;;;;;;;16.24;86.16;94504.94;5100884;28;20202;-79
2023/05/23 06:12:34;;;;;;;25.45;13.38;;;;;;;16.46;83.92;94511.50;5105788;28;20251;-79
2023/05/23 06:15:03;;;;;;;22.85;13.85;;;;;;;17.10;82.88;94502.28;5102041;28;20217;-79
2023/05/23 06:17:30;;;;;;;23.20;13.63;;;;;;;17.48;78.87;94505.88;5105964;28;20202;-79
2023/05/23 06:19:57;;;;;;;23.42;12.85;;;;;;;17.58;78.03;94506.00;5106170;28;20697;-79
2023/05/23 06:22:25;;;;;;;24.85;12.93;;;;;;;17.80;78.29;94506.22;5109806;28;20205;-79
2023/05/23 06:24:52;;;;;;;26.65;16.63;;;;;;;17.90;78.26;94511.06;5110847;28;20651;-79
2023/05/23 06:27:19;;;;;;;24.98;16.00;;;;;;;18.85;73.49;94500.06;5101898;28;20197;-78
2023/05/23 06:29:45;;;;;;;21.65;12.95;;;;;;;18.58;72.96;94501.44;5102187;28;20214;-75
2023/05/23 06:32:12;;;;;;;21.73;12.98;;;;;;;19.68;71.47;94497.31;5105654;28;20209;-77
2023/05/23 06:34:39;;;;;;;26.15;16.98;;;;;;;19.69;70.62;94506.34;5098834;28;20305;-77
2023/05/23 06:37:06;;;;;;;22.90;14.82;;;;;;;21.82;64.86;94500.63;5105193;28;20212;-76
2023/05/23 06:39:34;;;;;;;23.65;14.48;;;;;;;24.00;58.66;94487.13;5105446;28;20209;-78
2023/05/23 06:42:01;;;;;;;20.02;13.82;;;;;;;24.92;53.71;94490.44;5098259;28;20691;-76
2023/05/23 06:44:28;;;;;;;20.15;14.45;;;;;;;25.32;52.02;94486.56;5105932;28;20574;-75
2023/05/23 06:46:56;;;;;;;19.55;13.25;;;;;;;24.49;51.70;94490.38;5107254;28;20252;-78
2023/05/23 06:49:23;;;;;;;18.95;13.85;;;;;;;23.85;53.46;94492.09;5103619;28;20270;-80
2023/05/23 06:51:50;;;;;;;22.10;14.35;;;;;;;24.22;53.39;94482.84;5103018;28;20222;-78
2023/05/23 06:54:16;;;;;;;22.20;13.73;;;;;;;24.46;52.04;94475.41;5102581;28;20663;-78
2023/05/23 06:56:45;;;;;;;19.92;14.05;;;;;;;24.18;52.79;94486.88;5106142;28;20734;-77
2023/05/23 06:59:11;;;;;;;22.67;13.32;;;;;;;24.49;52.60;94488.38;5099018;28;20729;-76
2023/05/23 07:01:38;;;;;;;18.33;13.50;;;;;;;25.19;49.50;94470.97;5110860;28;20229;-76
2023/05/23 07:04:05;;;;;;;17.85;12.52;;;;;;;26.07;49.65;94466.41;5096950;28;20216;-78
2023/05/23 07:06:32;;;;;;;20.85;12.50;;;;;;;25.91;48.21;94465.56;5109300;28;20266;-76
2023/05/23 07:08:58;;;;;;;18.40;13.45;;;;;;;26.47;46.29;94467.06;5109736;28;20228;-77
2023/05/23 07:11:25;;;;;;;23.23;13.07;;;;;;;26.38;46.74;94466.09;5110489;28;20544;-79
2023/05/23 07:13:53;;;;;;;19.45;13.57;;;;;;;26.40;47.56;94470.00;5110547;28;20713;-76
2023/05/23 07:16:20;;;;;;;19.58;13.75;;;;;;;26.60;45.99;94460.81;5110390;28;20205;-77
2023/05/23 07:18:47;;;;;;;17.90;13.85;;;;;;;26.26;47.35;94458.41;5109802;28;20760;-76
2023/05/23 07:21:13;;;;;;;24.60;14.20;;;;;;;26.55;47.22;94453.78;5109835;28;20229;-74
2023/05/23 07:23:40;;;;;;;18.77;12.88;;;;;;;25.93;49.36;94452.03;5110332;28;20198;-77
2023/05/23 07:26:08;;;;;;;23.67;15.75;;;;;;;24.65;50.72;94449.75;5110189;28;20728;-77
2023/05/23 07:28:36;;;;;;;20.60;14.15;;;;;;;24.57;51.58;94442.78;5110385;28;20276;-76
2023/05/23 07:31:04;;;;;;;23.30;15.45;;;;;;;23.54;53.59;94452.56;5110528;28;20267;-77
2023/05/23 07:33:33;;;;;;;24.73;13.80;;;;;;;24.02;52.85;94446.00;5110002;28;20221;-76
2023/05/23 07:36:00;;;;;;;20.23;14.63;;;;;;;23.96;52.81;94442.91;5110160;28;20246;-75
2023/05/23 07:38:27;;;;;;;21.98;12.88;;;;;;;25.23;50.89;94439.19;5096273;28;20575;-76
2023/05/23 07:40:53;;;;;;;16.55;12.23;;;;;;;23.84;52.48;94446.25;5100395;28;20770;-74
2023/05/23 07:43:20;;;;;;;18.75;12.07;;;;;;;23.91;52.44;94443.38;5109987;28;20651;-75
2023/05/23 07:45:47;;;;;;;19.10;10.40;;;;;;;24.97;49.83;94429.03;5109305;28;20213;-77
2023/05/23 07:48:15;;;;;;;14.38;10.57;;;;;;;25.55;48.13;94435.00;5110074;28;20205;-75
2023/05/23 07:50:42;;;;;;;14.65;9.65;;;;;;;25.61;48.37;94427.72;5109135;28;20228;-76
2023/05/23 07:53:09;;;;;;;15.45;10.05;;;;;;;24.59;50.16;94432.06;5109475;28;20215;-77
2023/05/23 07:55:35;;;;;;;17.17;11.32;;;;;;;24.63;50.94;94429.97;5109438;28;20209;-76
2023/05/23 07:58:02;;;;;;;17.23;11.10;;;;;;;24.73;50.87;94440.13;5110041;28;20206;-76
2023/05/23 08:00:29;;;;;;;16.27;11.23;;;;;;;24.64;52.27;94437.09;5109145;28;20229;-73
2023/05/23 08:02:56;;;;;;;19.55;11.23;;;;;;;24.37;51.76;94445.47;5109446;28;20699;-74
2023/05/23 08:05:24;;;;;;;18.70;11.55;;;;;;;23.07;54.41;94448.78;5109011;28;20209;-76
2023/05/23 08:07:53;;;;;;;24.17;13.13;;;;;;;22.53;56.79;94445.75;5108874;28;20262;-75
2023/05/23 08:10:20;;;;;;;24.95;13.63;;;;;;;22.87;57.29;94429.25;5108780;28;20207;-75
2023/05/23 08:12:46;;;;;;;20.45;12.55;;;;;;;22.56;58.20;94431.09;5109180;28;20206;-82
2023/05/23 08:15:13;;;;;;;25.48;14.55;;;;;;;22.05;60.13;94442.19;5109831;28;20283;-75
2023/05/23 08:17:40;;;;;;;16.75;11.75;;;;;;;22.43;58.01;94443.84;5108767;28;20221;-76
2023/05/23 08:20:08;;;;;;;15.48;11.85;;;;;;;21.65;60.76;94438.88;5109571;28;20233;-75
2023/05/23 08:22:36;;;;;;;19.75;12.20;;;;;;;21.35;62.09;94441.38;5108948;28;20216;-77
2023/05/23 08:25:06;;;;;;;17.35;11.85;;;;;;;21.30;63.63;94433.56;5109790;28;20209;-77
2023/05/23 08:27:32;;;;;;;17.85;12.18;;;;;;;21.68;61.07;94438.06;5108986;28;20573;-75
2023/05/23 08:29:59;;;;;;;17.92;10.93;;;;;;;22.13;61.66;94440.97;5109157;28;20252;-76
2023/05/23 08:32:26;;;;;;;18.40;10.52;;;;;;;22.28;60.72;94434.13;5109076;28;20214;-79
2023/05/23 08:34:52;;;;;;;15.57;9.25;;;;;;;22.33;58.33;94439.22;5108446;28;20278;-74
2023/05/23 08:37:19;;;;;;;14.02;9.13;;;;;;;21.70;58.63;94435.69;5109555;28;20243;-76
2023/05/23 08:39:47;;;;;;;14.40;8.50;;;;;;;22.47;59.08;94433.56;5109242;28;20294;-78
2023/05/23 08:42:14;;;;;;;12.80;8.60;;;;;;;21.80;60.59;94426.56;5109092;28;20310;-78
2023/05/23 08:44:42;;;;;;;17.40;9.05;;;;;;;21.96;59.50;94426.84;5108930;28;20210;-75
2023/05/23 08:47:10;;;;;;;11.63;8.02;;;;;;;22.74;59.29;94421.88;5109212;28;20206;-73
2023/05/23 08:49:38;;;;;;;12.45;7.82;;;;;;;22.56;56.37;94425.56;5108304;28;20294;-76
2023/05/23 08:52:05;;;;;;;12.15;8.18;;;;;;;22.77;55.90;94423.84;5109186;28;20242;-74
2023/05/23 08:54:33;;;;;;;17.90;7.38;;;;;;;23.31;54.68;94422.03;5108848;28;20721;-76
2023/05/23 08:57:01;;;;;;;11.38;8.02;;;;;;;22.83;55.46;94419.41;5109321;28;20687;-73
2023/05/23 08:59:30;;;;;;;11.00;7.63;;;;;;;22.47;55.98;94425.28;5108512;28;20209;-74
2023/05/23 09:01:58;;;;;;;12.98;7.40;;;;;;;22.40;57.71;94427.34;5104310;28;20218;-74
2023/05/23 09:04:25;;;;;;;11.63;6.68;;;;;;;22.58;58.35;94412.16;5109170;28;20201;-77
2023/05/23 09:06:51;;;;;;;11.30;7.40;;;;;;;23.29;55.56;94414.16;5113064;28;20626;-75
2023/05/23 09:09:18;;;;;;;12.63;7.53;;;;;;;23.08;55.44;94416.41;5112227;28;20201;-75
2023/05/23 09:11:46;;;;;;;14.95;9.07;;;;;;;23.01;56.55;94422.78;5112980;28;20209;-75
2023/05/23 09:14:16;;;;;;;8.65;7.00;;;;;;;21.83;57.68;94423.00;5112338;28;20202;-75
2023/05/23 09:16:47;;;;;;;12.63;7.65;;;;;;;22.68;56.37;94416.81;5111983;28;20198;-77
2023/05/23 09:19:14;;;;;;;11.05;5.70;;;;;;;22.32;52.53;94415.56;5112787;28;20281;-74
2023/05/23 09:21:44;;;;;;;4.78;4.30;;;;;;;21.84;51.51;94424.59;5112908;28;20233;-74
2023/05/23 09:24:11;;;;;;;7.95;4.95;;;;;;;22.25;52.00;94410.13;5112938;28;20211;-75
2023/05/23 09:26:38;;;;;;;7.32;4.50;;;;;;;23.27;51.58;94410.22;5112956;28;20194;-75
2023/05/23 09:29:06;;;;;;;7.88;4.20;;;;;;;23.37;50.41;94401.78;5111962;28;20722;-74
2023/05/23 09:31:34;;;;;;;3.70;3.30;;;;;;;23.03;46.61;94403.81;5112445;28;20638;-73
2023/05/23 09:34:01;;;;;;;7.57;3.33;;;;;;;23.42;46.65;94402.53;5112214;28;20741;-77
2023/05/23 09:36:31;;;;;;;7.50;3.90;;;;;;;22.66;45.97;94412.88;5112652;28;20197;-77
2023/05/23 09:39:04;;;;;;;4.40;3.60;;;;;;;22.62;46.12;94396.34;5112876;28;20217;-76
2023/05/23 09:41:34;;;;;;;6.68;3.42;;;;;;;23.51;45.28;94400.06;5112543;28;20316;-76
2023/05/23 09:44:06;;;;;;;5.65;4.00;;;;;;;23.68;46.37;94401.81;5112238;28;20205;-76
2023/05/23 09:46:36;;;;;;;8.27;3.90;;;;;;;23.05;46.15;94395.91;5112255;28;20663;-76
2023/05/23 09:49:02;;;;;;;6.28;3.70;;;;;;;23.22;47.20;94394.13;5112459;28;20247;-74
2023/05/23 09:51:30;;;;;;;4.38;3.40;;;;;;;23.19;45.10;94394.94;5111969;28;20262;-73
2023/05/23 09:53:56;;;;;;;6.20;3.70;;;;;;;23.08;45.19;94395.09;5112204;28;20212;-78
2023/05/23 09:56:27;;;;;;;4.65;3.28;;;;;;;22.69;44.71;94396.25;5112160;28;20330;-77
2023/05/23 09:58:56;;;;;;;4.38;3.47;;;;;;;22.66;44.96;94391.56;5110590;28;20197;-75
2023/05/23 10:01:25;;;;;;;5.72;3.90;;;;;;;22.83;44.23;94383.50;5112098;28;20282;-77
2023/05/23 10:03:56;;;;;;;4.45;3.20;;;;;;;23.46;41.96;94383.94;5108350;28;20202;-76
2023/05/23 10:06:26;;;;;;;5.63;3.20;;;;;;;23.20;41.02;94390.97;5112160;28;20205;-77
2023/05/23 10:08:58;;;;;;;7.10;3.13;;;;;;;23.65;41.66;94384.06;5111751;28;20205;-75
2023/05/23 10:11:58;;;;;;;4.82;3.30;;;;;;;23.29;42.55;94389.28;5112365;28;20278;-74
2023/05/23 10:14:29;;;;;;;4.13;3.10;;;;;;;23.57;43.67;94381.81;5112004;28;20201;-75
2023/05/23 10:17:05;;;;;;;4.70;3.67;;;;;;;23.37;43.41;94370.63;5110631;28;20551;-74
2023/05/23 10:19:43;;;;;;;5.97;3.45;;;;;;;23.55;44.17;94373.16;5111685;28;20544;-73
2023/05/23 10:22:12;;;;;;;6.90;3.42;;;;;;;23.69;45.09;94378.47;5098131;28;20221;-74
2023/05/23 10:24:39;;;;;;;5.35;3.08;;;;;;;24.01;43.71;94373.25;5111615;28;20210;-74
2023/05/23 10:27:07;;;;;;;8.02;3.80;;;;;;;23.94;43.33;94378.88;5111314;28;20216;-74
2023/05/23 10:29:35;;;;;;;5.45;3.22;;;;;;;23.92;41.75;94370.22;5111174;28;20248;-76
2023/05/23 10:32:03;;;;;;;8.40;3.92;;;;;;;24.18;42.08;94365.09;5111272;28;20209;-76
2023/05/23 10:34:40;;;;;;;5.63;3.60;;;;;;;23.94;41.40;94365.06;5110338;28;20752;-77
2023/05/23 10:37:08;;;;;;;5.38;3.30;;;;;;;23.28;40.37;94364.81;5111407;28;20589;-85
2023/05/23 10:39:50;;;;;;;3.67;3.08;;;;;;;23.21;41.46;94365.69;5111148;28;20205;-76
2023/05/23 10:42:23;;;;;;;3.90;3.20;;;;;;;22.82;41.63;94376.44;5111595;28;20210;-79
2023/05/23 10:44:50;;;;;;;4.72;2.92;;;;;;;22.43;41.71;94377.59;5098241;28;20193;-75
2023/05/23 10:47:27;;;;;;;6.10;3.10;;;;;;;22.13;41.23;94358.19;5111398;28;20545;-75
2023/05/23 10:49:56;;;;;;;3.10;2.70;;;;;;;22.68;40.87;94367.09;5110751;28;20667;-76
2023/05/23 10:52:26;;;;;;;3.67;2.95;;;;;;;23.08;41.24;94361.91;5110906;28;20280;-74
2023/05/23 10:54:54;;;;;;;8.85;2.90;;;;;;;23.44;40.78;94353.94;5110821;28;20240;-76
2023/05/23 10:57:22;;;;;;;3.65;2.95;;;;;;;23.52;38.58;94346.34;5110624;28;20221;-77
2023/05/23 10:59:51;;;;;;;5.85;3.20;;;;;;;23.12;40.06;94348.81;5110880;28;20218;-74
2023/05/23 11:02:19;;;;;;;5.43;2.95;;;;;;;23.59;40.95;94337.94;5110943;28;20237;-75
2023/05/23 11:04:47;;;;;;;5.82;3.15;;;;;;;23.83;40.96;94350.59;5110908;28;20613;-75
2023/05/23 11:07:40;;;;;;;4.10;2.80;;;;;;;23.57;38.25;94354.16;5110582;28;20656;-77
2023/05/23 11:10:11;;;;;;;6.07;3.10;;;;;;;22.86;39.18;94350.34;5091231;28;20193;-71
2023/05/23 11:12:39;;;;;;;3.78;3.00;;;;;;;23.17;39.84;94342.84;5111389;28;20292;-75
2023/05/23 11:15:20;;;;;;;4.72;3.17;;;;;;;23.27;38.79;94336.38;5110910;28;20201;-74
2023/05/23 11:17:52;;;;;;;6.75;2.78;;;;;;;23.24;38.20;94336.41;5111016;28;20202;-73
2023/05/23 11:20:22;;;;;;;5.32;3.25;;;;;;;23.26;37.49;94345.09;5110237;28;20622;-76
2023/05/23 11:22:59;;;;;;;3.67;2.92;;;;;;;23.23;37.82;94335.66;5111092;28;20312;-73
2023/05/23 11:25:40;;;;;;;5.65;3.05;;;;;;;22.89;40.08;94326.63;5110845;28;20284;-75